Time;durP1;ratioP1;P1;durP2;ratioP2;P2;SDS_P1;SDS_P2;PMS_P1;PMS_P2;Temp;Humidity;BMP_temperature;BMP_pressure;BME280_temperature;BME280_humidity;BME280_pressure;Samples;Min_cycle;Max_cycle;Signal;HPM_P1;HPM_P2
2021/06/18 00:01:06;;;;;;;;;;;19.40;75.50;;;;;;4932418;28;74981;-66
2021/06/18 00:03:32;;;;;;;;;;;19.40;75.50;;;;;;4932335;28;75810;-67
2021/06/18 00:05:57;;;;;;;;;;;19.40;75.50;;;;;;4932303;28;75157;-68
2021/06/18 00:08:23;;;;;;;;;;;19.30;75.50;;;;;;4932291;28;75080;-66
2021/06/18 00:10:48;;;;;;;;;;;19.30;75.60;;;;;;4932512;28;75653;-67
2021/06/18 00:13:14;;;;;;;;;;;19.20;75.80;;;;;;4931260;28;75263;-67
2021/06/18 00:15:40;;;;;;;;;;;19.20;76.00;;;;;;4931546;28;76103;-67
2021/06/18 00:18:05;;;;;;;;;;;19.20;76.00;;;;;;4932625;28;74316;-65
2021/06/18 00:20:31;;;;;;;;;;;19.20;76.20;;;;;;4931911;28;75145;-71
2021/06/18 00:22:56;;;;;;;;;;;19.10;76.30;;;;;;4932660;28;74464;-72
2021/06/18 00:25:22;;;;;;;;;;;19.10;76.20;;;;;;4931555;28;76344;-70
2021/06/18 00:27:48;;;;;;;;;;;19.10;76.20;;;;;;4930767;28;78056;-71
2021/06/18 00:30:14;;;;;;;;;;;19.00;76.20;;;;;;4932240;28;75194;-69
2021/06/18 00:32:39;;;;;;;;;;;18.90;76.60;;;;;;4931742;28;75293;-69
2021/06/18 00:35:06;;;;;;;;;;;18.90;76.70;;;;;;4932181;28;74523;-71
2021/06/18 00:37:32;;;;;;;;;;;18.90;76.90;;;;;;4930651;28;77976;-71
2021/06/18 00:39:58;;;;;;;;;;;18.90;77.10;;;;;;4932381;28;75106;-72
2021/06/18 00:42:30;;;;;;;;;;;19.00;77.30;;;;;;4930438;28;77342;-72
2021/06/18 00:44:56;;;;;;;;;;;19.00;77.40;;;;;;4931927;28;74491;-71
2021/06/18 00:47:22;;;;;;;;;;;18.90;77.30;;;;;;4931882;28;75571;-70
2021/06/18 00:49:49;;;;;;;;;;;18.90;77.50;;;;;;4930026;28;77187;-71
2021/06/18 00:52:15;;;;;;;;;;;18.90;77.50;;;;;;4932258;28;74525;-72
2021/06/18 00:54:42;;;;;;;;;;;18.90;77.50;;;;;;4931631;28;75221;-71
2021/06/18 00:57:08;;;;;;;;;;;18.90;77.50;;;;;;4931914;28;75223;-67
2021/06/18 00:59:34;;;;;;;;;;;18.90;77.50;;;;;;4930601;28;78389;-66
2021/06/18 01:01:59;;;;;;;;;;;18.90;77.70;;;;;;4932082;28;74389;-67
2021/06/18 01:04:26;;;;;;;;;;;18.90;77.70;;;;;;4931574;28;74981;-67
2021/06/18 01:07:09;;;;;;;;;;;18.90;77.80;;;;;;4931497;28;74487;-68
2021/06/18 01:09:54;;;;;;;;;;;18.90;77.90;;;;;;4931817;28;75094;-67
2021/06/18 01:12:20;;;;;;;;;;;18.90;78.00;;;;;;4930080;28;75552;-66
2021/06/18 01:14:58;;;;;;;;;;;18.90;78.20;;;;;;4931292;28;75148;-66
2021/06/18 01:17:28;;;;;;;;;;;18.90;78.40;;;;;;4931689;28;75773;-66
2021/06/18 01:19:53;;;;;;;;;;;18.90;78.40;;;;;;4931428;28;75153;-68
2021/06/18 01:22:21;;;;;;;;;;;18.90;78.50;;;;;;4931329;28;74964;-66
2021/06/18 01:24:50;;;;;;;;;;;18.90;78.70;;;;;;4929747;28;77907;-68
2021/06/18 01:27:30;;;;;;;;;;;18.90;78.70;;;;;;4930507;28;78364;-69
2021/06/18 01:30:16;;;;;;;;;;;18.90;78.80;;;;;;4929923;28;77249;-67
2021/06/18 01:32:43;;;;;;;;;;;18.90;79.00;;;;;;4929823;28;74664;-66
2021/06/18 01:35:15;;;;;;;;;;;18.90;78.80;;;;;;4929494;28;74705;-67
2021/06/18 01:37:43;;;;;;;;;;;18.80;79.00;;;;;;4929780;28;75853;-67
2021/06/18 01:40:10;;;;;;;;;;;18.70;79.40;;;;;;4929689;28;77984;-67
2021/06/18 01:42:39;;;;;;;;;;;18.80;79.60;;;;;;4929850;28;75460;-69
2021/06/18 01:45:06;;;;;;;;;;;18.80;79.70;;;;;;4929612;28;77158;-66
2021/06/18 01:47:31;;;;;;;;;;;18.90;79.70;;;;;;4931138;28;76682;-69
2021/06/18 01:49:59;;;;;;;;;;;18.90;79.70;;;;;;4931268;28;74514;-70
2021/06/18 01:52:26;;;;;;;;;;;19.00;79.60;;;;;;4962262;28;76435;-65
2021/06/18 01:54:52;;;;;;;;;;;19.00;79.50;;;;;;4931208;28;74532;-66
2021/06/18 01:57:20;;;;;;;;;;;19.00;79.40;;;;;;4929930;28;77868;-68
2021/06/18 01:59:47;;;;;;;;;;;19.00;79.40;;;;;;4929394;28;75378;-68
2021/06/18 02:02:14;;;;;;;;;;;19.00;79.20;;;;;;4929348;28;77040;-65
2021/06/18 02:04:40;;;;;;;;;;;19.00;79.30;;;;;;4928865;28;77018;-66
2021/06/18 02:07:06;;;;;;;;;;;19.10;79.20;;;;;;4930708;28;75243;-68
2021/06/18 02:09:33;;;;;;;;;;;19.10;79.10;;;;;;4930705;28;75121;-66
2021/06/18 02:11:59;;;;;;;;;;;19.10;79.20;;;;;;4930780;28;75022;-65
2021/06/18 02:14:26;;;;;;;;;;;19.10;79.20;;;;;;4930147;28;74552;-66
2021/06/18 02:16:56;;;;;;;;;;;19.10;79.10;;;;;;4929073;28;77261;-67
2021/06/18 02:19:22;;;;;;;;;;;19.10;79.10;;;;;;4931018;28;74407;-66
2021/06/18 02:21:50;;;;;;;;;;;19.00;79.20;;;;;;4930339;28;75447;-65
2021/06/18 02:24:16;;;;;;;;;;;19.10;79.10;;;;;;4928904;28;77207;-67
2021/06/18 02:26:42;;;;;;;;;;;19.00;79.00;;;;;;4928941;28;78065;-67
2021/06/18 02:29:08;;;;;;;;;;;19.00;78.70;;;;;;4929055;28;74664;-66
2021/06/18 02:31:36;;;;;;;;;;;19.00;78.20;;;;;;4928634;28;76160;-66
2021/06/18 02:34:02;;;;;;;;;;;19.10;78.00;;;;;;4930753;28;77406;-66
2021/06/18 02:36:28;;;;;;;;;;;19.00;77.90;;;;;;4930316;28;75434;-66
2021/06/18 02:38:54;;;;;;;;;;;19.00;77.60;;;;;;4933227;28;75149;-66
2021/06/18 02:41:20;;;;;;;;;;;19.10;77.60;;;;;;4931873;28;76018;-65
2021/06/18 02:43:46;;;;;;;;;;;19.10;77.30;;;;;;4931585;28;77189;-66
2021/06/18 02:46:37;;;;;;;;;;;19.20;77.40;;;;;;4933249;28;75756;-67
2021/06/18 02:49:06;;;;;;;;;;;19.20;77.50;;;;;;4936433;28;75118;-67
2021/06/18 02:51:37;;;;;;;;;;;19.20;77.30;;;;;;4931780;28;77959;-67
2021/06/18 02:54:02;;;;;;;;;;;19.20;77.30;;;;;;4931577;28;78509;-66
2021/06/18 02:56:34;;;;;;;;;;;19.20;77.20;;;;;;4933033;28;75072;-66
2021/06/18 02:59:02;;;;;;;;;;;19.20;77.10;;;;;;4933162;28;75712;-65
2021/06/18 03:01:30;;;;;;;;;;;19.20;76.40;;;;;;4931439;28;76325;-67
2021/06/18 03:03:58;;;;;;;;;;;19.10;76.40;;;;;;4931718;28;75495;-69
2021/06/18 03:06:23;;;;;;;;;;;19.00;76.40;;;;;;4930996;28;77382;-68
2021/06/18 03:08:57;;;;;;;;;;;19.00;76.50;;;;;;4933099;28;75176;-69
2021/06/18 03:11:28;;;;;;;;;;;19.00;76.60;;;;;;4931650;28;74741;-67
2021/06/18 03:13:54;;;;;;;;;;;18.90;76.70;;;;;;4931365;28;75724;-68
2021/06/18 03:16:20;;;;;;;;;;;18.90;76.80;;;;;;4933030;28;75443;-70
2021/06/18 03:18:46;;;;;;;;;;;18.90;77.00;;;;;;4932908;28;74969;-66
2021/06/18 03:21:13;;;;;;;;;;;18.90;77.20;;;;;;4932863;28;74978;-67
2021/06/18 03:23:39;;;;;;;;;;;18.90;77.40;;;;;;4932729;28;75012;-67
2021/06/18 03:26:05;;;;;;;;;;;18.80;77.60;;;;;;4933070;28;75250;-67
2021/06/18 03:28:32;;;;;;;;;;;18.80;77.60;;;;;;4933183;28;74637;-67
2021/06/18 03:30:59;;;;;;;;;;;18.70;77.70;;;;;;4931101;28;77271;-66
2021/06/18 03:33:25;;;;;;;;;;;18.70;77.80;;;;;;4931267;28;77818;-68
2021/06/18 03:35:51;;;;;;;;;;;18.60;78.00;;;;;;4932432;28;75199;-67
2021/06/18 03:38:17;;;;;;;;;;;18.50;78.60;;;;;;4931387;28;75504;-66
2021/06/18 03:40:43;;;;;;;;;;;18.40;79.10;;;;;;4932446;28;75625;-68
2021/06/18 03:43:09;;;;;;;;;;;18.40;79.10;;;;;;4931311;28;74681;-69
2021/06/18 03:45:37;;;;;;;;;;;18.40;79.10;;;;;;4932752;28;75234;-69
2021/06/18 03:48:03;;;;;;;;;;;18.50;79.20;;;;;;4932466;28;74938;-70
2021/06/18 03:50:29;;;;;;;;;;;18.40;79.30;;;;;;4932542;28;75126;-68
2021/06/18 03:52:55;;;;;;;;;;;18.50;79.20;;;;;;4932549;28;75710;-68
2021/06/18 03:55:21;;;;;;;;;;;18.50;79.10;;;;;;4932530;28;75006;-70
2021/06/18 03:57:48;;;;;;;;;;;18.50;79.00;;;;;;4932242;28;75342;-67
2021/06/18 04:00:14;;;;;;;;;;;18.50;79.00;;;;;;4931078;28;75224;-68
2021/06/18 04:02:39;;;;;;;;;;;18.50;79.00;;;;;;4932150;28;76902;-69
2021/06/18 04:05:06;;;;;;;;;;;18.50;79.00;;;;;;4932041;28;74528;-68
2021/06/18 04:07:33;;;;;;;;;;;18.50;78.90;;;;;;4932514;28;75232;-69
2021/06/18 04:10:00;;;;;;;;;;;18.50;78.80;;;;;;4930792;28;77538;-69
2021/06/18 04:12:26;;;;;;;;;;;18.50;78.80;;;;;;4933198;28;74873;-66
2021/06/18 04:14:52;;;;;;;;;;;18.50;78.70;;;;;;4931876;28;75250;-66
2021/06/18 04:17:18;;;;;;;;;;;18.50;78.60;;;;;;4932339;28;75168;-66
2021/06/18 04:19:44;;;;;;;;;;;18.50;78.40;;;;;;4932556;28;75058;-66
2021/06/18 04:22:13;;;;;;;;;;;18.40;78.20;;;;;;4932088;28;75404;-67
2021/06/18 04:24:39;;;;;;;;;;;18.40;78.00;;;;;;4932316;28;75048;-70
2021/06/18 04:27:04;;;;;;;;;;;18.40;78.10;;;;;;4930670;28;76683;-66
2021/06/18 04:29:30;;;;;;;;;;;18.40;78.00;;;;;;4931349;28;76854;-67
2021/06/18 04:31:56;;;;;;;;;;;18.40;78.10;;;;;;4932294;28;74518;-66
2021/06/18 04:34:21;;;;;;;;;;;18.30;78.00;;;;;;4930466;28;78453;-66
2021/06/18 04:36:47;;;;;;;;;;;18.40;78.00;;;;;;4932166;28;74373;-66
2021/06/18 04:39:13;;;;;;;;;;;18.30;78.00;;;;;;4932330;28;74562;-67
2021/06/18 04:41:38;;;;;;;;;;;18.30;78.00;;;;;;4930878;28;77747;-66
2021/06/18 04:44:04;;;;;;;;;;;18.40;78.10;;;;;;4931938;28;74971;-66
2021/06/18 04:46:30;;;;;;;;;;;18.30;78.20;;;;;;4932058;28;75200;-66
2021/06/18 04:48:56;;;;;;;;;;;18.30;78.30;;;;;;4930859;28;77000;-66
2021/06/18 04:51:22;;;;;;;;;;;18.30;78.20;;;;;;4963227;28;77811;-67
2021/06/18 04:53:51;;;;;;;;;;;18.30;78.20;;;;;;4962847;28;76439;-68
2021/06/18 04:56:20;;;;;;;;;;;18.30;78.20;;;;;;4931679;28;75315;-66
2021/06/18 04:58:46;;;;;;;;;;;18.30;78.30;;;;;;4932335;28;74500;-66
2021/06/18 05:01:11;;;;;;;;;;;18.30;78.10;;;;;;4931441;28;76910;-66
2021/06/18 05:03:37;;;;;;;;;;;18.30;78.00;;;;;;4931039;28;75249;-66
2021/06/18 05:06:03;;;;;;;;;;;18.40;78.20;;;;;;4962330;28;78206;-67
2021/06/18 05:08:28;;;;;;;;;;;18.40;78.30;;;;;;4931501;28;75242;-70
2021/06/18 05:10:55;;;;;;;;;;;18.40;78.30;;;;;;4930626;28;76741;-71
2021/06/18 05:13:21;;;;;;;;;;;18.40;78.30;;;;;;4962001;28;75178;-70
2021/06/18 05:15:46;;;;;;;;;;;18.40;78.30;;;;;;4930029;28;77251;-68
2021/06/18 05:18:12;;;;;;;;;;;18.40;78.20;;;;;;4929797;28;78002;-66
2021/06/18 05:20:37;;;;;;;;;;;18.40;78.40;;;;;;4931445;28;75100;-67
2021/06/18 05:23:03;;;;;;;;;;;18.50;78.40;;;;;;4932055;28;74363;-69
2021/06/18 05:25:29;;;;;;;;;;;18.40;78.10;;;;;;4962249;28;74686;-69
2021/06/18 05:27:54;;;;;;;;;;;18.40;78.60;;;;;;4931327;28;75323;-72
2021/06/18 05:30:20;;;;;;;;;;;18.40;78.80;;;;;;4931139;28;75192;-71
2021/06/18 05:32:46;;;;;;;;;;;18.40;78.80;;;;;;4924253;28;76307;-72
2021/06/18 05:35:12;;;;;;;;;;;18.50;78.90;;;;;;4925780;28;75713;-71
2021/06/18 05:37:37;;;;;;;;;;;18.50;78.80;;;;;;4957559;28;75772;-71
2021/06/18 05:40:03;;;;;;;;;;;18.60;78.80;;;;;;4928700;28;76414;-70
2021/06/18 05:42:29;;;;;;;;;;;18.70;78.60;;;;;;4926899;28;75443;-71
2021/06/18 05:44:55;;;;;;;;;;;18.70;78.30;;;;;;4928309;28;75656;-71
2021/06/18 05:47:20;;;;;;;;;;;18.80;78.10;;;;;;4928004;28;75391;-71
2021/06/18 05:49:46;;;;;;;;;;;18.90;78.10;;;;;;4924142;28;75192;-71
2021/06/18 05:52:12;;;;;;;;;;;18.90;77.50;;;;;;4927594;28;75129;-70
2021/06/18 05:54:37;;;;;;;;;;;19.00;77.30;;;;;;4928317;28;75084;-70
2021/06/18 05:57:03;;;;;;;;;;;19.10;77.10;;;;;;4928208;28;75155;-70
2021/06/18 05:59:29;;;;;;;;;;;19.10;76.70;;;;;;4927847;28;76790;-70
2021/06/18 06:01:54;;;;;;;;;;;19.10;76.60;;;;;;4928230;28;74633;-71
2021/06/18 06:04:20;;;;;;;;;;;19.10;76.00;;;;;;4928091;28;75683;-70
2021/06/18 06:06:45;;;;;;;;;;;19.00;75.70;;;;;;4928017;28;75732;-70
2021/06/18 06:09:11;;;;;;;;;;;19.00;75.60;;;;;;4927950;28;75364;-70
2021/06/18 06:11:37;;;;;;;;;;;19.00;76.00;;;;;;4927525;28;75066;-70
2021/06/18 06:14:04;;;;;;;;;;;19.00;76.00;;;;;;4930047;28;77031;-70
2021/06/18 06:16:31;;;;;;;;;;;19.10;75.90;;;;;;4930757;28;74631;-71
2021/06/18 06:18:57;;;;;;;;;;;19.10;76.10;;;;;;4929887;28;74673;-71
2021/06/18 06:21:23;;;;;;;;;;;19.20;76.10;;;;;;4929418;28;77891;-71
2021/06/18 06:23:49;;;;;;;;;;;19.30;75.70;;;;;;4930443;28;75484;-71
2021/06/18 06:26:15;;;;;;;;;;;19.30;75.40;;;;;;4931403;28;74552;-71
2021/06/18 06:28:41;;;;;;;;;;;19.40;75.50;;;;;;4929202;28;75147;-71
2021/06/18 06:31:06;;;;;;;;;;;19.50;75.50;;;;;;4928830;28;75223;-71
2021/06/18 06:33:32;;;;;;;;;;;19.70;75.30;;;;;;4929188;28;77820;-71
2021/06/18 06:35:58;;;;;;;;;;;19.90;75.00;;;;;;4929998;28;76279;-71
2021/06/18 06:38:23;;;;;;;;;;;20.00;74.50;;;;;;4929680;28;76724;-70
2021/06/18 06:40:49;;;;;;;;;;;20.10;73.70;;;;;;4929852;28;77633;-70
2021/06/18 06:43:15;;;;;;;;;;;20.20;73.30;;;;;;4928362;28;77512;-70
2021/06/18 06:45:41;;;;;;;;;;;20.40;72.80;;;;;;4930803;28;74577;-70
2021/06/18 06:48:07;;;;;;;;;;;20.50;72.40;;;;;;4930893;28;74664;-69
2021/06/18 06:50:32;;;;;;;;;;;20.60;71.50;;;;;;4928608;28;77483;-70
2021/06/18 06:52:58;;;;;;;;;;;20.60;70.80;;;;;;4928698;28;75261;-67
2021/06/18 06:55:24;;;;;;;;;;;20.70;70.80;;;;;;4930840;28;76593;-68
2021/06/18 06:57:50;;;;;;;;;;;20.60;70.30;;;;;;4928665;28;77737;-69
2021/06/18 07:00:16;;;;;;;;;;;20.50;70.50;;;;;;4930955;28;75054;-68
2021/06/18 07:02:43;;;;;;;;;;;20.50;70.70;;;;;;4928473;28;75204;-69
2021/06/18 07:05:09;;;;;;;;;;;20.50;70.90;;;;;;4929765;28;76060;-69
2021/06/18 07:07:35;;;;;;;;;;;20.50;70.60;;;;;;4929405;28;76093;-69
2021/06/18 07:10:01;;;;;;;;;;;20.60;70.60;;;;;;4925407;28;78211;-70
2021/06/18 07:12:26;;;;;;;;;;;20.70;70.40;;;;;;4930400;28;75161;-71
2021/06/18 07:14:52;;;;;;;;;;;20.70;70.30;;;;;;4928884;28;75439;-69
2021/06/18 07:17:18;;;;;;;;;;;20.90;70.10;;;;;;4930438;28;75683;-69
2021/06/18 07:19:43;;;;;;;;;;;20.80;69.90;;;;;;4929228;28;76253;-69
2021/06/18 07:22:09;;;;;;;;;;;20.80;69.90;;;;;;4929998;28;75201;-68
2021/06/18 07:24:35;;;;;;;;;;;20.80;69.70;;;;;;4929488;28;75784;-68
2021/06/18 07:27:00;;;;;;;;;;;20.80;69.80;;;;;;4930859;28;76024;-68
2021/06/18 07:29:26;;;;;;;;;;;20.80;69.90;;;;;;4928630;28;76918;-68
2021/06/18 07:31:52;;;;;;;;;;;20.70;69.30;;;;;;4928365;28;77891;-69
2021/06/18 07:34:18;;;;;;;;;;;20.60;69.20;;;;;;4930421;28;75099;-69
2021/06/18 07:36:44;;;;;;;;;;;20.60;70.30;;;;;;4927601;28;77417;-69
2021/06/18 07:39:09;;;;;;;;;;;20.70;70.20;;;;;;4929193;28;75439;-69
2021/06/18 07:41:37;;;;;;;;;;;20.70;69.70;;;;;;4928521;28;77149;-69
2021/06/18 07:44:04;;;;;;;;;;;20.70;69.70;;;;;;4930241;28;76055;-68
2021/06/18 07:46:29;;;;;;;;;;;20.90;69.20;;;;;;4928639;28;75654;-68
2021/06/18 07:48:55;;;;;;;;;;;21.00;69.30;;;;;;4929728;28;74669;-68
2021/06/18 07:51:21;;;;;;;;;;;21.10;68.60;;;;;;4929755;28;75691;-67
2021/06/18 07:53:46;;;;;;;;;;;21.10;68.60;;;;;;4929860;28;75538;-67
2021/06/18 07:56:12;;;;;;;;;;;21.20;68.20;;;;;;4929778;28;74687;-70
2021/06/18 07:58:38;;;;;;;;;;;21.40;67.40;;;;;;4928840;28;75582;-67
2021/06/18 08:01:04;;;;;;;;;;;21.50;66.90;;;;;;4930072;28;75449;-68
2021/06/18 08:03:29;;;;;;;;;;;21.50;66.90;;;;;;4929270;28;76756;-68
2021/06/18 08:05:55;;;;;;;;;;;21.60;66.60;;;;;;4926173;28;77422;-67
2021/06/18 08:08:21;;;;;;;;;;;21.60;66.60;;;;;;4927672;28;75056;-68
2021/06/18 08:10:46;;;;;;;;;;;21.70;66.30;;;;;;4926767;28;76518;-68
2021/06/18 08:13:12;;;;;;;;;;;21.70;65.70;;;;;;4926137;28;75942;-68
2021/06/18 08:15:37;;;;;;;;;;;21.70;64.40;;;;;;4928829;28;75227;-68
2021/06/18 08:18:03;;;;;;;;;;;21.60;65.20;;;;;;4928080;28;78102;-68
2021/06/18 08:20:29;;;;;;;;;;;21.70;65.50;;;;;;4928317;28;77152;-67
2021/06/18 08:22:56;;;;;;;;;;;21.80;65.40;;;;;;4928068;28;76618;-67
2021/06/18 08:25:22;;;;;;;;;;;21.90;64.90;;;;;;4928243;28;75259;-67
2021/06/18 08:27:47;;;;;;;;;;;21.80;65.30;;;;;;4924066;28;76490;-68
2021/06/18 08:30:15;;;;;;;;;;;21.70;64.90;;;;;;4927769;28;76171;-68
2021/06/18 08:32:40;;;;;;;;;;;21.50;64.60;;;;;;4928064;28;76069;-68
2021/06/18 08:35:06;;;;;;;;;;;21.50;65.80;;;;;;4926171;28;75102;-69
2021/06/18 08:37:32;;;;;;;;;;;21.50;65.60;;;;;;4928616;28;75730;-68
2021/06/18 08:39:57;;;;;;;;;;;21.70;65.90;;;;;;4927997;28;75537;-69
2021/06/18 08:42:23;;;;;;;;;;;21.90;65.80;;;;;;4924609;28;76693;-68
2021/06/18 08:44:49;;;;;;;;;;;22.00;65.50;;;;;;4928568;28;74618;-69
2021/06/18 08:47:15;;;;;;;;;;;22.10;65.10;;;;;;4927688;28;75516;-69
2021/06/18 08:49:40;;;;;;;;;;;22.10;63.90;;;;;;4927496;28;75708;-68
2021/06/18 08:52:06;;;;;;;;;;;22.00;64.30;;;;;;4928946;28;75567;-70
2021/06/18 08:54:41;;;;;;;;;;;22.10;65.00;;;;;;4928034;28;76872;-69
2021/06/18 08:57:14;;;;;;;;;;;22.20;65.10;;;;;;4929296;28;75087;-69
2021/06/18 08:59:40;;;;;;;;;;;22.20;64.10;;;;;;4928126;28;75011;-69
2021/06/18 09:02:06;;;;;;;;;;;22.20;63.60;;;;;;4928668;28;75832;-70
2021/06/18 09:04:32;;;;;;;;;;;22.20;63.50;;;;;;4927699;28;76423;-69
2021/06/18 09:06:59;;;;;;;;;;;22.20;63.50;;;;;;4927463;28;75741;-70
2021/06/18 09:09:26;;;;;;;;;;;22.20;62.80;;;;;;4942699;28;75947;-69
2021/06/18 09:11:55;;;;;;;;;;;22.40;62.80;;;;;;4928617;28;75937;-69
2021/06/18 09:14:40;;;;;;;;;;;22.50;62.60;;;;;;4928101;28;75768;-69
2021/06/18 09:17:08;;;;;;;;;;;22.50;60.60;;;;;;4958804;28;75453;-69
2021/06/18 09:19:36;;;;;;;;;;;22.50;61.60;;;;;;4928389;28;75647;-70
2021/06/18 09:22:09;;;;;;;;;;;22.70;61.10;;;;;;4928934;28;75166;-70
2021/06/18 09:24:40;;;;;;;;;;;22.90;60.10;;;;;;4924197;28;77166;-69
2021/06/18 09:27:06;;;;;;;;;;;22.70;60.30;;;;;;4924966;28;76193;-70
2021/06/18 09:29:32;;;;;;;;;;;22.80;59.80;;;;;;4927765;28;75207;-70
2021/06/18 09:32:08;;;;;;;;;;;22.90;60.40;;;;;;4928268;28;74574;-70
2021/06/18 09:34:48;;;;;;;;;;;23.10;60.50;;;;;;4927526;28;76011;-69
2021/06/18 09:37:22;;;;;;;;;;;23.40;60.20;;;;;;4925300;28;75203;-69
2021/06/18 09:39:53;;;;;;;;;;;23.70;58.50;;;;;;4927189;28;77470;-68
2021/06/18 09:42:23;;;;;;;;;;;23.90;58.10;;;;;;4927856;28;77102;-69
2021/06/18 09:45:21;;;;;;;;;;;24.00;57.90;;;;;;4926708;28;75742;-69
2021/06/18 09:47:47;;;;;;;;;;;24.20;56.40;;;;;;4974143;28;75142;-68
2021/06/18 09:50:13;;;;;;;;;;;24.30;56.70;;;;;;4931051;28;75124;-68
2021/06/18 09:52:39;;;;;;;;;;;24.30;56.80;;;;;;4929867;28;77273;-69
2021/06/18 09:55:06;;;;;;;;;;;24.30;53.40;;;;;;4931383;28;75707;-68
2021/06/18 09:57:34;;;;;;;;;;;24.30;56.10;;;;;;4931035;28;74984;-69
2021/06/18 10:00:03;;;;;;;;;;;24.40;54.60;;;;;;4931428;28;75349;-69
2021/06/18 10:02:35;;;;;;;;;;;24.40;55.00;;;;;;4930921;28;75670;-68
2021/06/18 10:05:02;;;;;;;;;;;24.50;55.50;;;;;;4929621;28;76407;-69
2021/06/18 10:07:28;;;;;;;;;;;24.50;55.70;;;;;;4928223;28;74709;-70
2021/06/18 10:09:54;;;;;;;;;;;24.60;55.30;;;;;;4929791;28;74733;-69
2021/06/18 10:12:21;;;;;;;;;;;24.60;55.40;;;;;;4930800;28;75834;-69
2021/06/18 10:14:47;;;;;;;;;;;24.70;55.30;;;;;;4929168;28;77162;-71
2021/06/18 10:17:12;;;;;;;;;;;24.90;54.80;;;;;;4930794;28;76175;-71
2021/06/18 10:19:38;;;;;;;;;;;25.20;54.10;;;;;;4931608;28;76218;-70
2021/06/18 10:22:10;;;;;;;;;;;25.40;54.10;;;;;;4929062;28;75824;-70
2021/06/18 10:24:39;;;;;;;;;;;25.60;53.90;;;;;;4926750;28;76380;-69
2021/06/18 10:27:05;;;;;;;;;;;25.60;52.80;;;;;;4931078;28;76798;-69
2021/06/18 10:29:32;;;;;;;;;;;25.50;52.70;;;;;;4930172;28;75936;-69
2021/06/18 10:32:18;;;;;;;;;;;25.50;53.60;;;;;;4929588;28;77231;-69
2021/06/18 10:34:43;;;;;;;;;;;25.50;51.90;;;;;;4929676;28;76153;-69
2021/06/18 10:37:19;;;;;;;;;;;25.60;52.60;;;;;;4930416;28;76002;-69
2021/06/18 10:39:50;;;;;;;;;;;25.80;51.60;;;;;;4930654;28;75150;-69
2021/06/18 10:42:17;;;;;;;;;;;25.90;50.80;;;;;;4929754;28;75921;-70
2021/06/18 10:44:44;;;;;;;;;;;25.80;51.40;;;;;;4930558;28;75262;-70
2021/06/18 10:47:21;;;;;;;;;;;25.50;51.30;;;;;;4928629;28;75351;-70
2021/06/18 10:49:47;;;;;;;;;;;25.40;52.70;;;;;;4931000;28;75938;-70
2021/06/18 10:52:16;;;;;;;;;;;25.20;52.70;;;;;;4930153;28;75265;-69
2021/06/18 10:54:45;;;;;;;;;;;25.30;52.50;;;;;;4930270;28;75848;-70
2021/06/18 10:57:12;;;;;;;;;;;25.40;52.70;;;;;;4930210;28;74759;-69
2021/06/18 10:59:39;;;;;;;;;;;25.70;52.40;;;;;;4929895;28;75612;-69
2021/06/18 11:02:20;;;;;;;;;;;26.10;52.00;;;;;;4930998;28;75810;-69
2021/06/18 11:04:46;;;;;;;;;;;26.40;50.80;;;;;;4930018;28;74617;-69
2021/06/18 11:07:19;;;;;;;;;;;26.90;50.40;;;;;;4930081;28;75249;-71
2021/06/18 11:09:45;;;;;;;;;;;27.00;49.50;;;;;;4927770;28;76998;-69
2021/06/18 11:12:23;;;;;;;;;;;27.20;47.20;;;;;;4928227;28;76448;-69
2021/06/18 11:14:52;;;;;;;;;;;27.40;48.30;;;;;;4925234;28;76906;-71
2021/06/18 11:17:36;;;;;;;;;;;27.70;47.80;;;;;;4930117;28;76946;-68
2021/06/18 11:20:03;;;;;;;;;;;28.00;47.50;;;;;;4929112;28;75268;-68
2021/06/18 11:22:55;;;;;;;;;;;28.70;46.70;;;;;;4926282;28;76012;-69
2021/06/18 11:25:36;;;;;;;;;;;29.40;44.60;;;;;;4957921;28;75196;-70
2021/06/18 11:31:09;;;;;;;;;;;30.20;41.20;;;;;;4925863;28;75995;-68
2021/06/18 11:34:01;;;;;;;;;;;30.10;37.70;;;;;;4954183;28;78692;-69
2021/06/18 11:36:33;;;;;;;;;;;30.10;41.30;;;;;;4930054;28;75559;-69
2021/06/18 11:39:09;;;;;;;;;;;31.00;39.70;;;;;;4928123;28;77684;-69
2021/06/18 11:41:39;;;;;;;;;;;31.80;39.90;;;;;;4944624;28;77381;-68
2021/06/18 11:44:05;;;;;;;;;;;33.00;36.40;;;;;;4928919;28;75286;-70
2021/06/18 11:46:31;;;;;;;;;;;33.00;37.20;;;;;;4930605;28;76369;-69
2021/06/18 11:49:09;;;;;;;;;;;33.00;37.60;;;;;;4928967;28;76279;-66
2021/06/18 11:51:35;;;;;;;;;;;32.30;38.00;;;;;;4928006;28;75544;-67
2021/06/18 11:54:00;;;;;;;;;;;31.70;39.70;;;;;;4928370;28;77909;-68
2021/06/18 11:56:27;;;;;;;;;;;32.30;39.10;;;;;;4929825;28;75712;-69
2021/06/18 11:58:53;;;;;;;;;;;32.90;37.50;;;;;;4930174;28;74908;-68
2021/06/18 12:01:19;;;;;;;;;;;33.20;37.10;;;;;;4930317;28;76124;-70
2021/06/18 12:03:46;;;;;;;;;;;34.20;35.90;;;;;;4929609;28;75628;-69
2021/06/18 12:06:22;;;;;;;;;;;35.50;34.10;;;;;;4924601;28;76165;-68
2021/06/18 12:08:57;;;;;;;;;;;35.90;33.50;;;;;;4929781;28;75400;-69
2021/06/18 12:11:22;;;;;;;;;;;37.40;31.60;;;;;;4927871;28;75818;-69
2021/06/18 12:13:53;;;;;;;;;;;38.40;29.60;;;;;;4928222;28;77016;-67
2021/06/18 12:16:19;;;;;;;;;;;38.80;29.60;;;;;;4926388;28;77091;-68
2021/06/18 12:18:45;;;;;;;;;;;38.90;26.80;;;;;;4927664;28;76037;-69
2021/06/18 12:21:12;;;;;;;;;;;37.40;30.20;;;;;;4929202;28;76504;-67
2021/06/18 12:23:38;;;;;;;;;;;38.20;29.50;;;;;;4928306;28;78227;-68
2021/06/18 12:26:03;;;;;;;;;;;38.70;29.20;;;;;;4929106;28;75939;-68
2021/06/18 12:28:29;;;;;;;;;;;37.30;30.10;;;;;;4929116;28;75304;-68
2021/06/18 12:30:56;;;;;;;;;;;37.20;31.20;;;;;;4929448;28;75747;-67
2021/06/18 12:33:22;;;;;;;;;;;37.90;30.20;;;;;;4929417;28;76094;-68
2021/06/18 12:35:48;;;;;;;;;;;38.30;29.70;;;;;;4928081;28;76503;-68
2021/06/18 12:38:14;;;;;;;;;;;39.70;29.00;;;;;;4929527;28;75268;-68
2021/06/18 12:40:44;;;;;;;;;;;41.30;27.50;;;;;;4929020;28;75711;-69
2021/06/18 12:43:11;;;;;;;;;;;42.30;25.60;;;;;;4927341;28;78501;-68
2021/06/18 12:45:41;;;;;;;;;;;42.50;23.80;;;;;;4929220;28;74989;-68
2021/06/18 12:48:14;;;;;;;;;;;43.30;24.90;;;;;;4927517;28;77520;-68
2021/06/18 12:50:48;;;;;;;;;;;44.00;24.10;;;;;;4927539;28;75395;-68
2021/06/18 12:53:16;;;;;;;;;;;44.70;23.10;;;;;;4929174;28;76342;-68
2021/06/18 12:55:42;;;;;;;;;;;45.40;23.50;;;;;;4927478;28;79714;-69
2021/06/18 12:58:15;;;;;;;;;;;46.20;22.50;;;;;;4926832;28;77556;-68
2021/06/18 13:00:53;;;;;;;;;;;47.00;22.80;;;;;;4931610;28;75651;-69
2021/06/18 13:03:29;;;;;;;;;;;44.70;21.30;;;;;;4930697;28;75341;-68
2021/06/18 13:05:55;;;;;;;;;;;43.00;21.80;;;;;;4930125;28;77017;-69
2021/06/18 13:08:22;;;;;;;;;;;43.00;24.30;;;;;;4932072;28;74461;-70
2021/06/18 13:10:48;;;;;;;;;;;44.00;23.50;;;;;;4929927;28;76716;-68
2021/06/18 13:13:24;;;;;;;;;;;44.50;22.40;;;;;;4930229;28;77311;-63
2021/06/18 13:15:50;;;;;;;;;;;45.20;21.70;;;;;;4930541;28;78239;-67
2021/06/18 13:18:16;;;;;;;;;;;45.80;21.50;;;;;;4931075;28;75210;-67
2021/06/18 13:20:42;;;;;;;;;;;46.90;21.40;;;;;;4930868;28;75221;-67
2021/06/18 13:23:27;;;;;;;;;;;46.70;19.60;;;;;;4931961;28;75458;-67
2021/06/18 13:26:03;;;;;;;;;;;45.70;21.60;;;;;;4931707;28;75214;-66
2021/06/18 13:28:58;;;;;;;;;;;45.40;21.30;;;;;;4930108;28;76716;-65
2021/06/18 13:31:33;;;;;;;;;;;45.80;21.30;;;;;;4947683;28;75401;-66
2021/06/18 13:33:58;;;;;;;;;;;45.80;21.70;;;;;;4929863;28;76224;-66
2021/06/18 13:36:25;;;;;;;;;;;45.30;21.50;;;;;;4931192;28;74832;-66
2021/06/18 13:38:51;;;;;;;;;;;44.40;22.00;;;;;;4929626;28;77240;-66
2021/06/18 13:41:17;;;;;;;;;;;44.50;21.30;;;;;;4931339;28;75040;-68
2021/06/18 13:43:42;;;;;;;;;;;45.20;21.40;;;;;;4931528;28;74516;-65
2021/06/18 13:46:08;;;;;;;;;;;45.00;20.10;;;;;;4929719;28;76520;-66
2021/06/18 13:48:34;;;;;;;;;;;44.60;19.10;;;;;;4931133;28;75062;-67
2021/06/18 13:50:59;;;;;;;;;;;45.00;21.20;;;;;;4930971;28;74416;-66
2021/06/18 13:53:25;;;;;;;;;;;46.00;19.70;;;;;;4929599;28;77493;-65
2021/06/18 13:55:54;;;;;;;;;;;45.60;20.30;;;;;;4931231;28;74499;-67
2021/06/18 13:58:20;;;;;;;;;;;42.80;22.00;;;;;;4929855;28;76048;-66
2021/06/18 14:00:46;;;;;;;;;;;39.90;23.40;;;;;;4931107;28;75134;-65
2021/06/18 14:03:12;;;;;;;;;;;37.40;24.40;;;;;;4929100;28;75716;-65
2021/06/18 14:05:37;;;;;;;;;;;35.80;27.20;;;;;;4931042;28;75221;-64
2021/06/18 14:08:03;;;;;;;;;;;34.90;28.20;;;;;;4930556;28;74698;-63
2021/06/18 14:10:29;;;;;;;;;;;34.30;28.10;;;;;;4930662;28;76148;-64
2021/06/18 14:12:54;;;;;;;;;;;34.10;27.50;;;;;;4930727;28;75325;-63
2021/06/18 14:15:23;;;;;;;;;;;34.00;28.70;;;;;;4930468;28;76381;-65
2021/06/18 14:17:48;;;;;;;;;;;34.20;29.20;;;;;;4930813;28;75740;-66
2021/06/18 14:20:14;;;;;;;;;;;33.80;28.40;;;;;;4929103;28;74557;-64
2021/06/18 14:22:40;;;;;;;;;;;33.30;28.10;;;;;;4929907;28;75785;-68